Time;durP1;ratioP1;P1;durP2;ratioP2;P2;SDS_P1;SDS_P2;PMS_P1;PMS_P2;Temp;Humidity;BMP_temperature;BMP_pressure;BME280_temperature;BME280_humidity;BME280_pressure;Samples;Min_cycle;Max_cycle;Signal;HPM_P1;HPM_P2
2023/06/28 00:03:10;;;;;;;1.35;0.90;;;;;;;;;;12982678;19;20580;-63
2023/06/28 00:07:27;;;;;;;3.22;0.98;;;;;;;;;;12984234;19;20751;-64
2023/06/28 00:11:47;;;;;;;4.43;1.00;;;;;;;;;;12982481;19;20524;-63
2023/06/28 00:16:04;;;;;;;4.72;1.38;;;;;;;;;;12983428;19;20470;-63
2023/06/28 00:20:22;;;;;;;;;;;;;;;;;;12983335;19;20018;-63
2023/06/28 00:24:40;;;;;;;1.58;1.02;;;;;;;;;;12981308;19;20282;-62
2023/06/28 00:28:57;;;;;;;2.60;1.40;;;;;;;;;;12982869;19;20449;-62
2023/06/28 00:33:19;;;;;;;;;;;;;;;;;;12982082;19;20366;-62
2023/06/28 00:37:38;;;;;;;8.02;1.67;;;;;;;;;;12982809;19;20171;-62
2023/06/28 00:41:56;;;;;;;3.20;1.17;;;;;;;;;;12980968;19;20015;-62
2023/06/28 00:46:13;;;;;;;2.83;0.73;;;;;;;;;;12981159;19;20019;-62
2023/06/28 00:50:33;;;;;;;5.13;0.85;;;;;;;;;;12981605;19;20484;-62
2023/06/28 00:54:51;;;;;;;;;;;;;;;;;;12979243;19;20007;-62
2023/06/28 00:59:08;;;;;;;;;;;;;;;;;;12979790;19;20326;-62
2023/06/28 01:03:26;;;;;;;2.80;1.30;;;;;;;;;;12982249;19;20350;-62
2023/06/28 01:07:47;;;;;;;1.67;0.85;;;;;;;;;;12980655;19;20022;-62
2023/06/28 01:12:06;;;;;;;1.67;1.10;;;;;;;;;;12980173;19;20513;-62
2023/06/28 01:16:24;;;;;;;2.28;1.13;;;;;;;;;;12978654;19;20018;-62
2023/06/28 01:20:42;;;;;;;4.03;1.10;;;;;;;;;;12979297;19;20021;-62
2023/06/28 01:25:00;;;;;;;1.70;0.98;;;;;;;;;;12980198;19;20014;-62
2023/06/28 01:29:23;;;;;;;2.95;1.20;;;;;;;;;;12977865;19;20039;-62
2023/06/28 01:33:42;;;;;;;3.30;1.08;;;;;;;;;;12976892;19;20011;-62
2023/06/28 01:38:00;;;;;;;3.03;1.10;;;;;;;;;;12979734;19;20015;-62
2023/06/28 01:42:19;;;;;;;2.67;1.17;;;;;;;;;;12977214;19;20037;-63
2023/06/28 01:46:37;;;;;;;1.48;1.00;;;;;;;;;;12978070;19;20956;-63
2023/06/28 01:50:55;;;;;;;1.35;1.00;;;;;;;;;;12977715;19;20019;-63
2023/06/28 01:55:12;;;;;;;;;;;;;;;;;;12979026;19;20014;-63
2023/06/28 01:59:31;;;;;;;7.93;1.30;;;;;;;;;;12978262;19;19922;-63
2023/06/28 02:03:48;;;;;;;2.00;1.38;;;;;;;;;;12975097;19;20036;-63
2023/06/28 02:08:05;;;;;;;;;;;;;;;;;;12990610;19;20015;-63
2023/06/28 02:12:23;;;;;;;1.67;0.98;;;;;;;;;;12990666;19;19938;-63
2023/06/28 02:16:41;;;;;;;3.65;1.17;;;;;;;;;;12990093;19;20576;-62
2023/06/28 02:20:58;;;;;;;3.03;1.30;;;;;;;;;;12989274;19;20018;-62
2023/06/28 02:25:16;;;;;;;4.10;1.20;;;;;;;;;;12989913;19;20019;-62
2023/06/28 02:29:35;;;;;;;1.75;1.25;;;;;;;;;;12988222;19;20013;-62
2023/06/28 02:33:53;;;;;;;3.45;1.25;;;;;;;;;;12989125;19;20476;-63
2023/06/28 02:38:12;;;;;;;2.20;1.23;;;;;;;;;;12989269;19;20014;-62
2023/06/28 02:42:30;;;;;;;3.45;1.30;;;;;;;;;;12986870;19;20481;-62
2023/06/28 02:46:47;;;;;;;2.72;1.10;;;;;;;;;;12989242;19;20014;-63
2023/06/28 02:51:05;;;;;;;2.50;1.35;;;;;;;;;;12987876;19;20010;-63
2023/06/28 02:55:23;;;;;;;1.48;0.98;;;;;;;;;;12988002;19;20035;-63
2023/06/28 02:59:41;;;;;;;2.03;1.17;;;;;;;;;;12987697;19;20025;-63
2023/06/28 03:03:58;;;;;;;2.53;1.40;;;;;;;;;;12987195;19;20015;-62
2023/06/28 03:08:17;;;;;;;2.15;1.40;;;;;;;;;;12986780;19;20038;-63
2023/06/28 03:12:34;;;;;;;;;;;;;;;;;;12988184;19;20011;-63
2023/06/28 03:16:52;;;;;;;5.78;1.55;;;;;;;;;;12985742;19;19926;-63
2023/06/28 03:21:10;;;;;;;3.45;1.05;;;;;;;;;;12985564;19;20413;-63
2023/06/28 03:25:27;;;;;;;1.88;1.42;;;;;;;;;;12986436;19;20002;-62
2023/06/28 03:29:45;;;;;;;;;;;;;;;;;;12986374;19;20015;-63
2023/06/28 03:34:03;;;;;;;2.25;1.42;;;;;;;;;;12985394;19;19925;-62
2023/06/28 03:38:21;;;;;;;2.78;1.42;;;;;;;;;;12986286;19;20492;-62
2023/06/28 03:42:39;;;;;;;2.70;1.50;;;;;;;;;;12986630;19;20014;-62
2023/06/28 03:46:56;;;;;;;1.70;1.15;;;;;;;;;;12986096;19;20021;-62
2023/06/28 03:51:14;;;;;;;1.77;1.35;;;;;;;;;;12984813;19;20366;-63
2023/06/28 03:55:32;;;;;;;3.33;1.25;;;;;;;;;;12985269;19;20014;-62
2023/06/28 03:59:50;;;;;;;4.57;1.75;;;;;;;;;;12984672;19;20031;-63
2023/06/28 04:04:07;;;;;;;5.93;2.67;;;;;;;;;;12983527;19;20018;-63
2023/06/28 04:08:26;;;;;;;5.90;2.22;;;;;;;;;;12984097;19;20615;-62
2023/06/28 04:12:44;;;;;;;4.25;2.78;;;;;;;;;;12983699;19;20021;-62
2023/06/28 04:17:01;;;;;;;2.75;1.88;;;;;;;;;;12980775;19;20037;-65
2023/06/28 04:21:19;;;;;;;3.92;2.08;;;;;;;;;;12982516;19;20027;-63
2023/06/28 04:25:37;;;;;;;2.67;1.60;;;;;;;;;;12981001;19;20018;-63
2023/06/28 04:29:55;;;;;;;3.95;1.77;;;;;;;;;;12980521;19;20591;-63
2023/06/28 04:34:13;;;;;;;;;;;;;;;;;;12982810;19;20021;-63
2023/06/28 04:38:32;;;;;;;3.47;1.80;;;;;;;;;;12983235;19;19926;-63
2023/06/28 04:42:50;;;;;;;3.08;1.58;;;;;;;;;;12982333;19;20473;-63
2023/06/28 04:47:08;;;;;;;;;;;;;;;;;;12981931;19;20118;-63
2023/06/28 04:51:27;;;;;;;4.15;1.98;;;;;;;;;;12982294;19;19926;-63
2023/06/28 04:55:47;;;;;;;2.70;1.52;;;;;;;;;;12983068;19;20019;-63
2023/06/28 05:00:10;;;;;;;3.78;1.70;;;;;;;;;;12982150;19;20484;-62
2023/06/28 05:04:27;;;;;;;2.08;1.38;;;;;;;;;;12980606;19;20021;-62
2023/06/28 05:08:45;;;;;;;5.05;1.73;;;;;;;;;;12980916;19;20014;-62
2023/06/28 05:13:03;;;;;;;2.00;1.48;;;;;;;;;;12980421;19;20049;-63
2023/06/28 05:17:20;;;;;;;4.35;1.60;;;;;;;;;;12981035;19;20014;-62
2023/06/28 05:21:38;;;;;;;4.97;1.67;;;;;;;;;;12980222;19;20032;-63
2023/06/28 05:25:56;;;;;;;2.58;1.27;;;;;;;;;;12980282;19;20019;-63
2023/06/28 05:30:14;;;;;;;4.65;1.30;;;;;;;;;;12978364;19;20030;-63
2023/06/28 05:34:32;;;;;;;2.75;1.10;;;;;;;;;;12979293;19;20021;-63
2023/06/28 05:38:49;;;;;;;3.15;1.48;;;;;;;;;;12981899;19;20014;-63
2023/06/28 05:43:07;;;;;;;7.22;1.38;;;;;;;;;;12990186;19;20018;-63
2023/06/28 05:47:25;;;;;;;2.92;1.10;;;;;;;;;;12992227;19;20375;-63
2023/06/28 05:51:42;;;;;;;;;;;;;;;;;;12992555;19;20059;-63
2023/06/28 05:56:00;;;;;;;2.95;1.70;;;;;;;;;;12991582;19;19918;-63
2023/06/28 06:00:19;;;;;;;;;;;;;;;;;;12992219;19;20377;-63
2023/06/28 06:04:36;;;;;;;3.17;1.33;;;;;;;;;;12990218;19;19917;-64
2023/06/28 06:08:54;;;;;;;;;;;;;;;;;;12991001;19;20018;-64
2023/06/28 06:13:12;;;;;;;2.30;1.17;;;;;;;;;;12988872;19;19941;-63
2023/06/28 06:17:31;;;;;;;5.22;1.42;;;;;;;;;;12989714;19;20018;-64
2023/06/28 06:21:49;;;;;;;3.38;1.52;;;;;;;;;;12988654;19;20018;-63
2023/06/28 06:26:06;;;;;;;;;;;;;;;;;;12987987;19;20015;-64
2023/06/28 06:30:24;;;;;;;3.85;1.27;;;;;;;;;;12990229;19;19914;-64
2023/06/28 06:34:43;;;;;;;3.75;1.30;;;;;;;;;;12990080;19;20019;-64
2023/06/28 06:39:02;;;;;;;3.72;1.40;;;;;;;;;;12989006;19;20011;-63
2023/06/28 06:43:20;;;;;;;2.60;1.08;;;;;;;;;;12987794;19;20365;-63
2023/06/28 06:47:39;;;;;;;2.35;1.30;;;;;;;;;;12988384;19;20021;-63
2023/06/28 06:51:56;;;;;;;3.30;1.25;;;;;;;;;;12986686;19;20018;-63
2023/06/28 06:56:21;;;;;;;3.65;1.10;;;;;;;;;;12987828;19;20022;-63
2023/06/28 07:00:39;;;;;;;4.20;1.17;;;;;;;;;;12987359;19;20015;-63
2023/06/28 07:04:57;;;;;;;1.52;0.98;;;;;;;;;;12987695;19;20014;-63
2023/06/28 07:09:17;;;;;;;3.35;1.38;;;;;;;;;;12986660;19;20014;-63
2023/06/28 07:13:34;;;;;;;4.50;1.38;;;;;;;;;;12987751;19;20508;-63
2023/06/28 07:17:53;;;;;;;3.38;1.23;;;;;;;;;;12987451;19;20034;-63
2023/06/28 07:22:12;;;;;;;3.45;1.20;;;;;;;;;;12985596;19;20739;-63
2023/06/28 07:26:30;;;;;;;1.75;0.93;;;;;;;;;;12986130;19;20021;-63
2023/06/28 07:30:54;;;;;;;1.80;1.08;;;;;;;;;;12984931;19;20013;-64
2023/06/28 07:35:12;;;;;;;3.53;0.88;;;;;;;;;;12985671;19;20018;-64
2023/06/28 07:39:30;;;;;;;3.85;0.80;;;;;;;;;;12985840;19;20018;-63
2023/06/28 07:43:49;;;;;;;1.17;0.80;;;;;;;;;;12985310;19;20384;-64
2023/06/28 07:48:08;;;;;;;1.77;0.88;;;;;;;;;;12984872;19;20015;-63
2023/06/28 07:52:26;;;;;;;4.72;1.35;;;;;;;;;;12984787;19;20021;-63
2023/06/28 07:56:43;;;;;;;6.55;1.45;;;;;;;;;;12984609;19;20014;-64
2023/06/28 08:01:01;;;;;;;;;;;;;;;;;;12983998;19;20010;-68
2023/06/28 08:05:19;;;;;;;3.65;1.10;;;;;;;;;;12984762;19;19918;-63
2023/06/28 08:09:37;;;;;;;4.47;1.23;;;;;;;;;;12984562;19;20078;-63
2023/06/28 08:13:55;;;;;;;3.33;0.82;;;;;;;;;;12982920;19;20057;-63
2023/06/28 08:18:16;;;;;;;2.17;0.82;;;;;;;;;;12983827;19;20484;-63
2023/06/28 08:22:33;;;;;;;1.88;0.68;;;;;;;;;;12982902;19;20006;-63
2023/06/28 08:26:51;;;;;;;2.92;1.02;;;;;;;;;;12982610;19;20010;-63
2023/06/28 08:31:09;;;;;;;;;;;;;;;;;;12982457;19;20006;-63
2023/06/28 08:35:29;;;;;;;2.53;0.70;;;;;;;;;;12982374;19;19922;-63
2023/06/28 08:39:47;;;;;;;2.47;1.10;;;;;;;;;;12983017;19;20014;-62
2023/06/28 08:44:06;;;;;;;2.90;0.63;;;;;;;;;;12980538;19;20018;-63
2023/06/28 08:48:24;;;;;;;4.55;0.93;;;;;;;;;;12981277;19;20014;-63
2023/06/28 08:52:48;;;;;;;2.05;0.80;;;;;;;;;;12982107;19;20007;-63
2023/06/28 08:57:07;;;;;;;2.65;0.70;;;;;;;;;;12981874;19;20017;-63
2023/06/28 09:01:30;;;;;;;1.90;1.00;;;;;;;;;;12981246;19;20014;-63
2023/06/28 09:05:51;;;;;;;2.38;1.00;;;;;;;;;;12979761;19;20014;-63
2023/06/28 09:10:10;;;;;;;2.25;0.65;;;;;;;;;;12980448;19;20014;-62
2023/06/28 09:14:28;;;;;;;2.70;0.90;;;;;;;;;;12985164;19;20011;-63
2023/06/28 09:18:46;;;;;;;3.15;0.63;;;;;;;;;;12993393;19;20085;-63
2023/06/28 09:23:04;;;;;;;1.75;0.90;;;;;;;;;;12992709;19;20014;-64
2023/06/28 09:27:22;;;;;;;1.50;0.80;;;;;;;;;;12994171;19;20011;-63
2023/06/28 09:31:42;;;;;;;2.17;1.10;;;;;;;;;;12993712;19;20006;-63
2023/06/28 09:36:04;;;;;;;1.73;0.63;;;;;;;;;;12993863;19;20018;-63
2023/06/28 09:40:22;;;;;;;1.85;0.80;;;;;;;;;;12993848;19;20055;-62
2023/06/28 09:44:40;;;;;;;5.78;0.80;;;;;;;;;;12992625;19;20010;-63
2023/06/28 09:48:58;;;;;;;4.03;0.80;;;;;;;;;;12992568;19;20029;-63
2023/06/28 09:53:21;;;;;;;1.38;0.80;;;;;;;;;;12991626;19;20354;-63
2023/06/28 09:57:42;;;;;;;1.95;0.63;;;;;;;;;;12989584;19;20014;-63
2023/06/28 10:02:05;;;;;;;3.58;0.90;;;;;;;;;;12988711;19;20006;-63
2023/06/28 10:06:23;;;;;;;2.30;0.75;;;;;;;;;;12990698;19;20019;-63
2023/06/28 10:10:43;;;;;;;2.75;1.08;;;;;;;;;;12988878;19;20010;-63
2023/06/28 10:15:07;;;;;;;2.42;0.90;;;;;;;;;;12990469;19;20015;-64
2023/06/28 10:19:28;;;;;;;8.90;1.23;;;;;;;;;;12989020;19;20025;-63
2023/06/28 10:23:47;;;;;;;1.92;0.90;;;;;;;;;;12988869;19;20022;-63
2023/06/28 10:28:05;;;;;;;4.97;1.00;;;;;;;;;;12986229;19;20014;-63
2023/06/28 10:32:24;;;;;;;;;;;;;;;;;;12990186;19;20473;-64
2023/06/28 10:36:43;;;;;;;2.80;1.00;;;;;;;;;;12989613;19;19915;-64
2023/06/28 10:41:01;;;;;;;1.30;0.90;;;;;;;;;;12986822;19;20011;-64
2023/06/28 10:45:36;;;;;;;1.50;0.70;;;;;;;;;;12984530;19;20023;-63
2023/06/28 10:50:09;;;;;;;1.77;0.75;;;;;;;;;;12988239;19;20368;-63
2023/06/28 10:54:27;;;;;;;2.17;0.85;;;;;;;;;;12986570;19;20018;-63
2023/06/28 10:58:47;;;;;;;;;;;;;;;;;;12988678;19;20026;-64
2023/06/28 11:03:06;;;;;;;2.72;0.90;;;;;;;;;;12986662;19;19923;-64
2023/06/28 11:07:27;;;;;;;0.98;0.50;;;;;;;;;;12987512;19;20041;-63
2023/06/28 11:11:48;;;;;;;4.05;1.10;;;;;;;;;;12984861;19;20042;-62
2023/06/28 11:16:12;;;;;;;3.80;0.98;;;;;;;;;;12987298;19;20015;-62
2023/06/28 11:20:30;;;;;;;4.15;0.80;;;;;;;;;;12987805;19;20018;-62
2023/06/28 11:24:49;;;;;;;3.67;0.98;;;;;;;;;;12984957;19;20029;-63
2023/06/28 11:29:18;;;;;;;2.35;0.80;;;;;;;;;;12985862;19;20007;-63
2023/06/28 11:33:37;;;;;;;2.35;0.90;;;;;;;;;;12985241;19;20441;-64
2023/06/28 11:37:54;;;;;;;3.17;1.08;;;;;;;;;;12984873;19;20046;-64
2023/06/28 11:42:17;;;;;;;4.50;1.38;;;;;;;;;;12983500;19;20043;-63
2023/06/28 11:46:36;;;;;;;4.35;0.95;;;;;;;;;;12985781;19;20006;-64
2023/06/28 11:51:05;;;;;;;1.98;0.77;;;;;;;;;;12984894;19;20018;-63
2023/06/28 11:55:28;;;;;;;2.88;0.90;;;;;;;;;;12984743;19;20481;-63
2023/06/28 11:59:52;;;;;;;1.73;0.90;;;;;;;;;;12984754;19;20018;-63
2023/06/28 12:04:20;;;;;;;2.30;0.70;;;;;;;;;;12984792;19;20019;-63
2023/06/28 12:08:41;;;;;;;1.67;0.80;;;;;;;;;;12984761;19;20019;-63
2023/06/28 12:12:59;;;;;;;3.00;0.98;;;;;;;;;;12984420;19;20022;-63
2023/06/28 12:17:17;;;;;;;1.65;0.60;;;;;;;;;;12983132;19;20025;-64
2023/06/28 12:21:37;;;;;;;2.08;0.80;;;;;;;;;;12983773;19;20014;-63
2023/06/28 12:25:59;;;;;;;2.83;0.82;;;;;;;;;;12983264;19;20021;-63
2023/06/28 12:30:17;;;;;;;1.98;0.80;;;;;;;;;;12981743;19;20018;-63
2023/06/28 12:34:37;;;;;;;1.02;0.60;;;;;;;;;;12982412;19;20516;-63
2023/06/28 12:38:54;;;;;;;3.58;1.15;;;;;;;;;;12979677;19;20014;-63
2023/06/28 12:43:21;;;;;;;3.65;0.85;;;;;;;;;;12981556;19;20017;-63
2023/06/28 12:47:39;;;;;;;1.85;0.80;;;;;;;;;;12981621;19;20050;-63
2023/06/28 12:51:57;;;;;;;2.90;0.90;;;;;;;;;;12981256;19;20015;-63
2023/06/28 12:56:15;;;;;;;5.47;0.70;;;;;;;;;;12981339;19;20021;-64
2023/06/28 13:00:35;;;;;;;1.50;0.57;;;;;;;;;;12981839;19;20014;-63
2023/06/28 13:04:53;;;;;;;1.90;0.60;;;;;;;;;;12979515;19;20022;-63
2023/06/28 13:09:11;;;;;;;1.50;0.60;;;;;;;;;;12979844;19;20014;-63
2023/06/28 13:13:29;;;;;;;3.88;0.80;;;;;;;;;;12980899;19;20038;-63
2023/06/28 13:17:47;;;;;;;5.60;0.80;;;;;;;;;;12980180;19;20320;-63
2023/06/28 13:22:05;;;;;;;2.92;0.73;;;;;;;;;;12978073;19;20038;-62
2023/06/28 13:26:23;;;;;;;1.83;0.85;;;;;;;;;;12979339;19;20021;-62
2023/06/28 13:30:41;;;;;;;2.20;0.70;;;;;;;;;;12978507;19;20018;-63
2023/06/28 13:34:58;;;;;;;1.20;0.55;;;;;;;;;;12979573;19;20015;-62
2023/06/28 13:39:17;;;;;;;2.00;0.80;;;;;;;;;;12979082;19;20465;-62
2023/06/28 13:43:36;;;;;;;1.98;0.70;;;;;;;;;;12978748;19;20014;-62
2023/06/28 13:47:54;;;;;;;2.47;0.60;;;;;;;;;;12979988;19;20011;-62
2023/06/28 13:52:12;;;;;;;1.42;0.70;;;;;;;;;;12978610;19;20085;-61
2023/06/28 13:56:30;;;;;;;6.35;1.10;;;;;;;;;;12979047;19;20477;-62
2023/06/28 14:00:48;;;;;;;3.13;1.45;;;;;;;;;;12984533;19;20078;-62
2023/06/28 14:05:06;;;;;;;5.05;0.93;;;;;;;;;;12989836;19;20017;-62
2023/06/28 14:09:24;;;;;;;3.15;0.80;;;;;;;;;;12991023;19;20029;-62
2023/06/28 14:13:42;;;;;;;;;;;;;;;;;;12991109;19;20018;-62
2023/06/28 14:18:00;;;;;;;2.45;0.90;;;;;;;;;;12989940;19;20234;-63
2023/06/28 14:22:18;;;;;;;2.83;0.80;;;;;;;;;;12989174;19;20078;-63
2023/06/28 14:26:37;;;;;;;2.25;0.73;;;;;;;;;;12990362;19;20010;-62
2023/06/28 14:30:54;;;;;;;2.10;0.82;;;;;;;;;;12986498;19;20021;-62
2023/06/28 14:35:14;;;;;;;1.48;0.70;;;;;;;;;;12988680;19;20010;-62
2023/06/28 14:39:31;;;;;;;1.27;0.80;;;;;;;;;;12988524;19;20376;-62
2023/06/28 14:43:50;;;;;;;2.05;0.88;;;;;;;;;;12987945;19;20029;-63
2023/06/28 14:48:07;;;;;;;1.52;0.55;;;;;;;;;;12988046;19;20021;-63
2023/06/28 14:52:25;;;;;;;2.00;0.80;;;;;;;;;;12988109;19;20549;-62
2023/06/28 14:56:43;;;;;;;;;;;;;;;;;;12988901;19;20019;-62
2023/06/28 15:01:01;;;;;;;0.85;0.65;;;;;;;;;;12988120;19;19915;-62
2023/06/28 15:05:19;;;;;;;1.60;0.65;;;;;;;;;;12986271;19;20060;-63
2023/06/28 15:09:37;;;;;;;2.25;0.85;;;;;;;;;;12987234;19;20019;-63
2023/06/28 15:13:55;;;;;;;2.70;1.10;;;;;;;;;;12985416;19;20010;-63
2023/06/28 15:18:12;;;;;;;3.42;1.20;;;;;;;;;;12986887;19;20026;-63
2023/06/28 15:22:30;;;;;;;1.83;0.90;;;;;;;;;;12986720;19;20014;-63
2023/06/28 15:26:48;;;;;;;3.50;1.00;;;;;;;;;;12985543;19;20102;-62
2023/06/28 15:31:06;;;;;;;1.60;0.90;;;;;;;;;;12985321;19;20456;-65
2023/06/28 15:35:24;;;;;;;2.88;0.90;;;;;;;;;;12985470;19;20034;-63
2023/06/28 15:39:41;;;;;;;0.77;0.63;;;;;;;;;;12985837;19;20014;-62
2023/06/28 15:43:59;;;;;;;;;;;;;;;;;;12985609;19;20018;-62
2023/06/28 15:48:17;;;;;;;;;;;;;;;;;;12985985;19;19922;-63
2023/06/28 15:52:34;;;;;;;1.73;0.80;;;;;;;;;;12985303;19;19929;-63
2023/06/28 15:56:53;;;;;;;2.28;0.93;;;;;;;;;;12985215;19;20014;-63
2023/06/28 16:01:13;;;;;;;2.35;1.02;;;;;;;;;;12984841;19;20037;-64
2023/06/28 16:05:31;;;;;;;4.57;1.17;;;;;;;;;;12985230;19;20009;-64
2023/06/28 16:09:48;;;;;;;2.08;1.00;;;;;;;;;;12984871;19;20103;-64
2023/06/28 16:14:08;;;;;;;3.38;1.35;;;;;;;;;;12984859;19;20015;-65
2023/06/28 16:18:26;;;;;;;2.42;1.00;;;;;;;;;;12984722;19;20697;-65
2023/06/28 16:22:43;;;;;;;;;;;;;;;;;;12981866;19;20019;-65
2023/06/28 16:27:01;;;;;;;1.75;1.00;;;;;;;;;;12983526;19;19915;-69
2023/06/28 16:31:19;;;;;;;;;;;;;;;;;;12983625;19;20354;-65
2023/06/28 16:35:36;;;;;;;4.95;1.38;;;;;;;;;;12983264;19;19918;-65
2023/06/28 16:39:54;;;;;;;;;;;;;;;;;;12983446;19;20034;-65
2023/06/28 16:44:11;;;;;;;1.57;1.03;;;;;;;;;;12980023;19;19994;-66
2023/06/28 16:48:29;;;;;;;2.95;1.60;;;;;;;;;;12982884;19;20010;-65
2023/06/28 16:52:47;;;;;;;;;;;;;;;;;;12982221;19;20018;-65
2023/06/28 16:57:05;;;;;;;3.17;1.45;;;;;;;;;;12981616;19;20204;-65
2023/06/28 17:01:22;;;;;;;5.97;1.95;;;;;;;;;;12981365;19;20493;-65
2023/06/28 17:05:44;;;;;;;2.03;1.15;;;;;;;;;;12981128;19;20607;-65
2023/06/28 17:10:05;;;;;;;5.50;1.65;;;;;;;;;;12979965;19;20041;-65
2023/06/28 17:14:22;;;;;;;2.10;1.40;;;;;;;;;;12980992;19;20019;-65
2023/06/28 17:18:40;;;;;;;2.88;1.50;;;;;;;;;;12981117;19;20018;-65
2023/06/28 17:22:58;;;;;;;2.65;1.65;;;;;;;;;;12981307;19;20010;-65
2023/06/28 17:27:17;;;;;;;4.05;1.50;;;;;;;;;;12980734;19;20015;-65
2023/06/28 17:31:35;;;;;;;4.68;1.50;;;;;;;;;;12980153;19;20338;-65
2023/06/28 17:35:53;;;;;;;;;;;;;;;;;;12985789;19;20018;-64
2023/06/28 17:40:10;;;;;;;;;;;;;;;;;;12992302;19;19922;-65
2023/06/28 17:44:28;;;;;;;10.48;1.85;;;;;;;;;;12992603;19;20285;-64
2023/06/28 17:48:46;;;;;;;2.72;1.45;;;;;;;;;;12992755;19;20462;-64
2023/06/28 17:53:04;;;;;;;1.73;1.10;;;;;;;;;;12990559;19;20026;-65
2023/06/28 17:57:22;;;;;;;3.78;1.27;;;;;;;;;;12991102;19;20357;-64
2023/06/28 18:01:39;;;;;;;6.65;3.47;;;;;;;;;;12988736;19;20022;-64
2023/06/28 18:05:57;;;;;;;;;;;;;;;;;;12991573;19;20011;-64
2023/06/28 18:10:15;;;;;;;5.13;1.70;;;;;;;;;;12990585;19;19915;-64
2023/06/28 18:14:33;;;;;;;6.47;2.28;;;;;;;;;;12990659;19;20014;-64
2023/06/28 18:18:51;;;;;;;5.10;1.65;;;;;;;;;;12990890;19;20014;-65
2023/06/28 18:23:09;;;;;;;;;;;;;;;;;;12990480;19;20014;-65
2023/06/28 18:27:26;;;;;;;7.05;3.20;;;;;;;;;;12989755;19;19918;-65
2023/06/28 18:31:43;;;;;;;6.68;2.45;;;;;;;;;;12985663;19;20521;-65
2023/06/28 18:36:02;;;;;;;6.50;2.50;;;;;;;;;;12988093;19;20102;-66
2023/06/28 18:40:20;;;;;;;6.88;2.67;;;;;;;;;;12988425;19;20053;-65
2023/06/28 18:44:38;;;;;;;7.05;2.88;;;;;;;;;;12987926;19;20114;-65
2023/06/28 18:48:56;;;;;;;3.65;2.30;;;;;;;;;;12986599;19;20022;-64
2023/06/28 18:53:14;;;;;;;9.68;3.83;;;;;;;;;;12987808;19;20015;-65
2023/06/28 18:57:32;;;;;;;;;;;;;;;;;;12988413;19;20021;-65
2023/06/28 19:01:50;;;;;;;7.25;2.70;;;;;;;;;;12988153;19;20349;-65
2023/06/28 19:06:07;;;;;;;;;;;;;;;;;;12987433;19;20014;-65
2023/06/28 19:10:26;;;;;;;5.25;2.70;;;;;;;;;;12987890;19;19923;-64
2023/06/28 19:14:44;;;;;;;3.50;2.15;;;;;;;;;;12987782;19;20006;-65
2023/06/28 19:19:02;;;;;;;;;;;;;;;;;;12987405;19;20015;-65
2023/06/28 19:23:20;;;;;;;2.15;1.52;;;;;;;;;;12987031;19;19914;-65
2023/06/28 19:27:37;;;;;;;5.25;1.90;;;;;;;;;;12987119;19;20496;-65
2023/06/28 19:31:58;;;;;;;;;;;;;;;;;;12986003;19;20017;-65
2023/06/28 19:36:16;;;;;;;2.97;1.65;;;;;;;;;;12984429;19;20331;-65
2023/06/28 19:40:34;;;;;;;1.88;1.35;;;;;;;;;;12986855;19;20022;-64
2023/06/28 19:44:52;;;;;;;2.58;1.77;;;;;;;;;;12985645;19;20018;-65
2023/06/28 19:49:09;;;;;;;2.90;1.83;;;;;;;;;;12983068;19;20022;-64
2023/06/28 19:53:28;;;;;;;1.52;1.10;;;;;;;;;;12985271;19;20015;-65
2023/06/28 19:57:46;;;;;;;2.63;1.73;;;;;;;;;;12985049;19;20118;-64
2023/06/28 20:02:05;;;;;;;3.15;1.33;;;;;;;;;;12985122;19;20018;-65
2023/06/28 20:06:23;;;;;;;2.28;1.52;;;;;;;;;;12984839;19;20401;-64
2023/06/28 20:10:41;;;;;;;3.05;1.63;;;;;;;;;;12984191;19;20018;-64
2023/06/28 20:15:03;;;;;;;2.95;1.45;;;;;;;;;;12984330;19;20082;-65
2023/06/28 20:19:23;;;;;;;1.98;1.42;;;;;;;;;;12984381;19;20469;-64
2023/06/28 20:23:41;;;;;;;;;;;;;;;;;;12984195;19;20488;-64
2023/06/28 20:27:58;;;;;;;2.63;1.50;;;;;;;;;;12981260;19;19922;-64
2023/06/28 20:32:16;;;;;;;2.38;1.50;;;;;;;;;;12982282;19;20366;-65
2023/06/28 20:36:34;;;;;;;;;;;;;;;;;;12984533;19;20354;-65
2023/06/28 20:40:53;;;;;;;1.83;1.40;;;;;;;;;;12982554;19;19918;-64
2023/06/28 20:45:11;;;;;;;3.00;1.50;;;;;;;;;;12982049;19;20017;-65
2023/06/28 20:49:30;;;;;;;3.22;1.27;;;;;;;;;;12982891;19;20361;-65
2023/06/28 20:53:47;;;;;;;1.63;1.25;;;;;;;;;;12983465;19;20015;-64
2023/06/28 20:58:05;;;;;;;3.78;1.60;;;;;;;;;;12982127;19;20021;-65
2023/06/28 21:02:26;;;;;;;2.28;1.40;;;;;;;;;;12982852;19;20110;-64
2023/06/28 21:06:44;;;;;;;2.17;1.60;;;;;;;;;;12974690;19;20021;-65
2023/06/28 21:11:02;;;;;;;2.38;1.20;;;;;;;;;;12981417;19;20010;-65
2023/06/28 21:15:19;;;;;;;2.67;1.42;;;;;;;;;;12991302;19;20018;-65
2023/06/28 21:19:37;;;;;;;1.63;1.23;;;;;;;;;;12991177;19;20034;-65
2023/06/28 21:23:55;;;;;;;2.55;1.70;;;;;;;;;;12989747;19;20374;-65
2023/06/28 21:28:15;;;;;;;2.38;1.73;;;;;;;;;;12980810;19;20018;-65
2023/06/28 21:32:33;;;;;;;6.25;1.77;;;;;;;;;;12992576;19;20014;-65
2023/06/28 21:36:51;;;;;;;2.05;1.40;;;;;;;;;;12987970;19;20048;-64
2023/06/28 21:41:08;;;;;;;2.63;1.50;;;;;;;;;;12986946;19;20018;-65
2023/06/28 21:45:26;;;;;;;4.38;1.80;;;;;;;;;;12987331;19;20912;-65
2023/06/28 21:49:44;;;;;;;;;;;;;;;;;;12988235;19;20025;-65
2023/06/28 21:54:02;;;;;;;2.65;1.70;;;;;;;;;;12987075;19;19914;-66
2023/06/28 21:58:20;;;;;;;5.97;2.22;;;;;;;;;;12987379;19;20014;-65
2023/06/28 22:02:38;;;;;;;2.92;1.83;;;;;;;;;;12987025;19;20010;-64
2023/06/28 22:06:56;;;;;;;2.35;1.63;;;;;;;;;;12987524;19;20021;-64
2023/06/28 22:11:27;;;;;;;5.23;2.27;;;;;;;;;;12985879;19;20014;-65
2023/06/28 22:15:46;;;;;;;3.03;2.00;;;;;;;;;;12986843;19;20216;-64
2023/06/28 22:20:07;;;;;;;4.00;2.15;;;;;;;;;;12986173;19;20011;-65
2023/06/28 22:24:25;;;;;;;3.22;1.98;;;;;;;;;;12972043;19;20032;-65
2023/06/28 22:28:42;;;;;;;;;;;;;;;;;;12983916;19;20018;-64
2023/06/28 22:33:00;;;;;;;3.75;2.10;;;;;;;;;;12985448;19;19922;-64
2023/06/28 22:37:18;;;;;;;4.57;2.17;;;;;;;;;;12985188;19;20042;-64
2023/06/28 22:41:35;;;;;;;4.60;2.08;;;;;;;;;;12983096;19;20014;-64
2023/06/28 22:45:53;;;;;;;;;;;;;;;;;;12985862;19;20014;-64
2023/06/28 22:50:11;;;;;;;;;;;;;;;;;;12985105;19;20468;-65
2023/06/28 22:54:29;;;;;;;6.53;2.28;;;;;;;;;;12984166;19;19933;-64
2023/06/28 22:58:46;;;;;;;6.10;2.50;;;;;;;;;;12984195;19;20006;-64
2023/06/28 23:03:04;;;;;;;5.55;2.78;;;;;;;;;;12982247;19;20019;-65
2023/06/28 23:07:22;;;;;;;;;;;;;;;;;;12984176;19;20041;-65
2023/06/28 23:11:40;;;;;;;5.30;2.42;;;;;;;;;;12984147;19;19922;-64
2023/06/28 23:15:57;;;;;;;;;;;;;;;;;;12984804;19;20015;-64
2023/06/28 23:20:15;;;;;;;3.55;2.55;;;;;;;;;;12982839;19;19940;-64
2023/06/28 23:24:34;;;;;;;5.13;2.63;;;;;;;;;;12981881;19;20939;-64
2023/06/28 23:28:52;;;;;;;11.18;2.92;;;;;;;;;;12982695;19;20019;-65
2023/06/28 23:33:14;;;;;;;5.30;2.45;;;;;;;;;;12980154;19;20764;-65
2023/06/28 23:37:31;;;;;;;5.65;2.65;;;;;;;;;;12982320;19;20022;-65
2023/06/28 23:41:49;;;;;;;11.77;3.72;;;;;;;;;;12982246;19;20039;-64
2023/06/28 23:46:09;;;;;;;;;;;;;;;;;;12981773;19;20017;-65
2023/06/28 23:50:28;;;;;;;6.25;2.97;;;;;;;;;;12981463;19;19919;-65
2023/06/28 23:54:48;;;;;;;5.18;2.70;;;;;;;;;;12978762;19;20090;-65
2023/06/28 23:59:07;;;;;;;5.50;3.35;;;;;;;;;;12979986;19;20045;-65
